createdAt,value
2023-05-19T00:01:33.754Z,3.30
2023-05-19T00:04:35.081Z,2.88
2023-05-19T00:07:36.428Z,2.70
2023-05-19T00:10:37.771Z,2.42
2023-05-19T00:13:39.089Z,3.10
2023-05-19T00:16:40.432Z,2.67
2023-05-19T00:19:41.765Z,2.85
2023-05-19T00:22:43.110Z,2.87
2023-05-19T00:25:44.454Z,2.78
2023-05-19T00:28:45.812Z,3.47
2023-05-19T00:31:47.173Z,3.15
2023-05-19T00:34:48.602Z,2.83
2023-05-19T00:37:49.926Z,2.73
2023-05-19T00:40:51.280Z,3.58
2023-05-19T00:43:52.614Z,2.70
2023-05-19T00:46:54.031Z,3.20
2023-05-19T00:49:55.377Z,3.05
2023-05-19T00:52:56.718Z,2.80
2023-05-19T00:55:58.055Z,2.83
2023-05-19T00:58:59.540Z,2.53
2023-05-19T01:02:00.903Z,3.17
2023-05-19T01:05:02.315Z,3.08
2023-05-19T01:08:03.685Z,2.70
2023-05-19T01:11:05.023Z,3.05
2023-05-19T01:14:06.376Z,3.17
2023-05-19T01:17:07.714Z,2.78
2023-05-19T01:20:09.084Z,2.95
2023-05-19T01:23:10.445Z,2.97
2023-05-19T01:26:11.780Z,2.88
2023-05-19T01:29:13.105Z,3.05
2023-05-19T01:32:14.517Z,2.72
2023-05-19T01:35:15.917Z,2.45
2023-05-19T01:38:17.261Z,2.90
2023-05-19T01:41:18.609Z,2.58
2023-05-19T01:44:19.944Z,2.95
2023-05-19T01:47:21.300Z,2.90
2023-05-19T01:50:22.623Z,2.63
2023-05-19T01:53:23.983Z,2.77
2023-05-19T01:56:25.370Z,2.88
2023-05-19T01:59:26.751Z,3.38
2023-05-19T02:02:28.131Z,3.13
2023-05-19T02:05:29.473Z,3.15
2023-05-19T02:08:30.851Z,2.87
2023-05-19T02:11:32.229Z,2.97
2023-05-19T02:14:33.566Z,3.55
2023-05-19T02:17:34.982Z,2.63
2023-05-19T02:20:36.337Z,3.30
2023-05-19T02:23:37.694Z,2.80
2023-05-19T02:26:39.014Z,2.72
2023-05-19T02:29:40.346Z,2.92
2023-05-19T02:32:41.746Z,2.58
2023-05-19T02:35:43.122Z,2.70
2023-05-19T02:38:44.484Z,3.03
2023-05-19T02:41:45.840Z,2.90
2023-05-19T02:44:47.189Z,2.65
2023-05-19T02:47:48.529Z,3.38
2023-05-19T02:50:49.909Z,2.85
2023-05-19T02:53:51.245Z,2.70
2023-05-19T02:56:52.610Z,2.75
2023-05-19T02:59:53.963Z,3.13
2023-05-19T03:02:55.402Z,2.45
2023-05-19T03:05:56.838Z,2.78
2023-05-19T03:08:58.164Z,2.60
2023-05-19T03:11:59.504Z,2.55
2023-05-19T03:15:00.965Z,2.88
2023-05-19T03:18:02.339Z,2.63
2023-05-19T03:21:03.744Z,2.92
2023-05-19T03:24:05.184Z,2.57
2023-05-19T03:27:06.537Z,2.90
2023-05-19T03:30:07.893Z,3.17
2023-05-19T03:33:09.396Z,2.55
2023-05-19T03:36:10.803Z,3.03
2023-05-19T03:39:12.156Z,3.00
2023-05-19T03:42:13.506Z,2.88
2023-05-19T03:45:14.868Z,2.88
2023-05-19T03:48:16.567Z,2.20
2023-05-19T03:51:18.820Z,2.85
2023-05-19T03:54:20.163Z,2.77
2023-05-19T03:57:21.506Z,3.00
2023-05-19T04:00:22.856Z,2.90
2023-05-19T04:03:24.436Z,2.90
2023-05-19T04:06:25.932Z,3.10
2023-05-19T04:09:27.257Z,2.90
2023-05-19T04:12:28.611Z,2.75
2023-05-19T04:15:29.947Z,3.00
2023-05-19T04:18:31.318Z,2.90
2023-05-19T04:21:32.643Z,3.55
2023-05-19T04:24:33.990Z,2.87
2023-05-19T04:27:35.348Z,3.60
2023-05-19T04:30:36.704Z,3.33
2023-05-19T04:33:38.069Z,3.55
2023-05-19T04:36:39.412Z,3.58
2023-05-19T04:39:40.736Z,2.80
2023-05-19T04:42:42.094Z,3.17
2023-05-19T04:45:43.435Z,3.97
2023-05-19T04:48:44.782Z,3.78
2023-05-19T04:51:46.140Z,3.55
2023-05-19T04:54:47.501Z,3.60
2023-05-19T04:57:48.855Z,3.53
2023-05-19T05:00:50.184Z,3.95
2023-05-19T05:03:51.539Z,3.17
2023-05-19T05:06:52.976Z,3.50
2023-05-19T05:09:54.333Z,3.47
2023-05-19T05:12:55.661Z,2.50
2023-05-19T05:15:57.073Z,2.88
2023-05-19T05:18:58.473Z,2.92
2023-05-19T05:21:59.857Z,3.60
2023-05-19T05:25:01.217Z,3.30
2023-05-19T05:28:02.598Z,2.58
2023-05-19T05:31:04.005Z,3.97
2023-05-19T05:34:05.398Z,3.47
2023-05-19T05:37:06.755Z,3.42
2023-05-19T05:40:08.118Z,3.20
2023-05-19T05:43:09.465Z,2.45
2023-05-19T05:46:10.854Z,3.60
2023-05-19T05:49:12.227Z,2.97
2023-05-19T05:52:13.600Z,3.33
2023-05-19T05:55:14.976Z,6.27
2023-05-19T05:58:16.302Z,6.90
2023-05-19T06:01:17.690Z,5.07
2023-05-19T06:04:19.076Z,4.47
2023-05-19T06:07:20.434Z,5.82
2023-05-19T06:10:21.788Z,3.87
2023-05-19T06:13:23.159Z,4.20
2023-05-19T06:16:24.610Z,3.75
2023-05-19T06:19:26.010Z,3.80
2023-05-19T06:22:27.364Z,3.05
2023-05-19T06:25:28.734Z,3.47
2023-05-19T06:28:30.105Z,3.88
2023-05-19T06:31:31.541Z,4.00
2023-05-19T06:34:32.972Z,4.20
2023-05-19T06:37:35.380Z,3.83
2023-05-19T06:40:36.726Z,3.87
2023-05-19T06:43:38.108Z,3.90
2023-05-19T06:46:39.483Z,4.20
2023-05-19T06:49:40.916Z,3.22
2023-05-19T06:52:42.253Z,3.95
2023-05-19T06:55:57.486Z,3.53
2023-05-19T06:59:00.508Z,3.13
2023-05-19T07:02:01.900Z,3.63
2023-05-19T07:05:03.295Z,3.40
2023-05-19T07:08:04.643Z,3.40
2023-05-19T07:11:05.990Z,3.90
2023-05-19T07:14:07.345Z,3.55
2023-05-19T07:17:08.725Z,3.60
2023-05-19T07:20:10.101Z,2.95
2023-05-19T07:23:11.522Z,4.00
2023-05-19T07:26:12.896Z,3.17
2023-05-19T07:29:14.258Z,3.47
2023-05-19T07:32:15.678Z,3.70
2023-05-19T07:35:17.085Z,3.53
2023-05-19T07:38:18.433Z,4.43
2023-05-19T07:41:19.804Z,2.87
2023-05-19T07:44:21.163Z,3.80
2023-05-19T07:47:22.503Z,3.60
2023-05-19T07:50:23.838Z,3.58
2023-05-19T07:53:25.220Z,4.53
2023-05-19T07:56:26.606Z,4.00
2023-05-19T07:59:27.943Z,4.00
2023-05-19T08:02:29.448Z,3.60
2023-05-19T08:05:30.880Z,3.97
2023-05-19T08:08:32.317Z,4.10
2023-05-19T08:11:33.650Z,3.70
2023-05-19T08:14:35.021Z,3.80
2023-05-19T08:17:36.459Z,4.45
2023-05-19T08:20:37.841Z,4.10
2023-05-19T08:23:39.194Z,4.28
2023-05-19T08:26:40.553Z,3.73
2023-05-19T08:29:41.917Z,4.88
2023-05-19T08:32:43.306Z,3.35
2023-05-19T08:35:44.673Z,3.90
2023-05-19T08:38:46.129Z,3.50
2023-05-19T08:41:47.475Z,3.67
2023-05-19T08:44:48.859Z,3.25
2023-05-19T08:47:50.250Z,3.47
2023-05-19T08:50:51.622Z,3.38
2023-05-19T08:53:52.978Z,3.05
2023-05-19T08:56:54.345Z,3.77
2023-05-19T08:59:55.693Z,3.45
2023-05-19T09:03:06.032Z,3.42
2023-05-19T09:06:18.368Z,3.58
2023-05-19T09:09:19.744Z,3.78
2023-05-19T09:12:21.106Z,3.63
2023-05-19T09:15:22.440Z,3.67
2023-05-19T09:18:23.809Z,3.70
2023-05-19T09:21:25.137Z,3.90
2023-05-19T09:24:26.499Z,3.80
2023-05-19T09:27:27.840Z,3.67
2023-05-19T09:30:29.175Z,4.68
2023-05-19T09:33:30.616Z,7.25
2023-05-19T09:36:32.044Z,4.72
2023-05-19T09:39:33.399Z,5.03
2023-05-19T09:42:34.755Z,5.13
2023-05-19T09:45:36.088Z,3.80
2023-05-19T09:48:37.453Z,4.78
2023-05-19T09:51:38.793Z,5.30
2023-05-19T09:54:40.148Z,5.45
2023-05-19T09:57:41.643Z,4.40
2023-05-19T10:00:43.080Z,4.47
2023-05-19T10:03:44.520Z,4.38
2023-05-19T10:06:45.877Z,4.60
2023-05-19T10:09:47.288Z,4.60
2023-05-19T10:12:48.645Z,4.13
2023-05-19T10:15:58.223Z,4.07
2023-05-19T10:18:59.931Z,4.20
2023-05-19T10:22:01.322Z,4.38
2023-05-19T10:25:02.678Z,4.20
2023-05-19T10:28:04.038Z,5.40
2023-05-19T10:31:05.413Z,6.07
2023-05-19T10:34:06.763Z,5.90
2023-05-19T10:37:08.125Z,5.28
2023-05-19T10:40:09.956Z,5.65
2023-05-19T10:43:11.522Z,7.80
2023-05-19T10:46:12.973Z,6.30
2023-05-19T10:49:14.383Z,6.40
2023-05-19T10:52:15.739Z,5.03
2023-05-19T10:55:17.084Z,4.50
2023-05-19T10:58:18.401Z,5.00
2023-05-19T11:01:19.848Z,4.72
2023-05-19T11:04:21.302Z,4.30
2023-05-19T11:07:22.773Z,4.55
2023-05-19T11:10:24.128Z,4.75
2023-05-19T11:13:26.156Z,4.90
2023-05-19T11:16:27.641Z,4.15
2023-05-19T11:19:29.106Z,4.35
2023-05-19T11:22:30.479Z,4.13
2023-05-19T11:25:32.047Z,4.50
2023-05-19T11:28:33.546Z,4.33
2023-05-19T11:31:36.132Z,3.90
2023-05-19T11:34:37.530Z,4.72
2023-05-19T11:37:38.865Z,3.97
2023-05-19T11:40:40.170Z,4.63
2023-05-19T11:43:41.636Z,4.40
2023-05-19T11:46:43.046Z,4.30
2023-05-19T11:49:44.417Z,4.60
2023-05-19T11:52:45.791Z,4.68
2023-05-19T11:55:47.470Z,4.57
2023-05-19T11:58:49.059Z,4.40
2023-05-19T12:01:50.462Z,4.35
2023-05-19T12:04:51.916Z,5.55
2023-05-19T12:07:53.303Z,6.55
2023-05-19T12:10:54.626Z,4.78
2023-05-19T12:13:55.997Z,5.27
2023-05-19T12:16:57.358Z,5.20
2023-05-19T12:19:58.731Z,5.38
2023-05-19T12:23:00.104Z,4.75
2023-05-19T12:26:01.484Z,4.70
2023-05-19T12:29:02.801Z,4.73
2023-05-19T12:32:04.238Z,5.45
2023-05-19T12:35:05.636Z,5.20
2023-05-19T12:38:06.981Z,4.38
2023-05-19T12:41:08.336Z,3.90
2023-05-19T12:44:09.657Z,4.57
2023-05-19T12:47:11.020Z,4.20
2023-05-19T12:50:12.387Z,4.65
2023-05-19T12:53:13.838Z,4.05
2023-05-19T12:56:15.253Z,4.00
2023-05-19T12:59:21.184Z,4.47
2023-05-19T13:02:28.544Z,4.70
2023-05-19T13:05:29.962Z,4.15
2023-05-19T13:08:31.340Z,4.43
2023-05-19T13:11:32.680Z,4.30
2023-05-19T13:14:34.044Z,3.90
2023-05-19T13:17:35.465Z,3.78
2023-05-19T13:20:36.878Z,4.25
2023-05-19T13:23:38.233Z,4.10
2023-05-19T13:26:39.611Z,3.88
2023-05-19T13:29:40.960Z,4.17
2023-05-19T13:32:42.351Z,3.92
2023-05-19T13:35:43.749Z,3.67
2023-05-19T13:38:45.112Z,5.03
2023-05-19T13:41:46.486Z,5.13
2023-05-19T13:44:47.850Z,5.43
2023-05-19T13:47:49.252Z,4.30
2023-05-19T13:50:50.617Z,4.55
2023-05-19T13:53:51.948Z,5.05
2023-05-19T13:56:53.288Z,4.18
2023-05-19T14:00:02.430Z,4.73
2023-05-19T14:03:04.503Z,4.50
2023-05-19T14:06:05.999Z,5.25
2023-05-19T14:09:07.358Z,4.20
2023-05-19T14:12:08.690Z,6.30
2023-05-19T14:15:11.453Z,6.73
2023-05-19T14:18:13.068Z,5.00
2023-05-19T14:21:14.447Z,4.95
2023-05-19T14:24:15.790Z,4.90
2023-05-19T14:27:17.137Z,5.85
2023-05-19T14:30:18.462Z,4.37
2023-05-19T14:33:19.839Z,5.10
2023-05-19T14:36:21.173Z,5.20
2023-05-19T14:39:22.535Z,4.22
2023-05-19T14:42:23.862Z,4.57
2023-05-19T14:45:25.228Z,4.80
2023-05-19T14:48:26.584Z,4.85
2023-05-19T14:51:27.919Z,5.05
2023-05-19T14:54:29.251Z,4.45
2023-05-19T14:57:30.582Z,5.70
2023-05-19T15:00:32.184Z,5.37
2023-05-19T15:03:33.665Z,4.22
2023-05-19T15:06:35.020Z,4.88
2023-05-19T15:09:36.416Z,4.20
2023-05-19T15:12:37.785Z,7.85
2023-05-19T15:15:39.133Z,5.87
2023-05-19T15:18:40.489Z,5.68
2023-05-19T15:21:41.858Z,5.40
2023-05-19T15:24:43.219Z,4.93
2023-05-19T15:27:44.648Z,5.03
2023-05-19T15:30:46.074Z,5.30
2023-05-19T15:33:47.422Z,5.45
2023-05-19T15:36:48.776Z,5.55
2023-05-19T15:39:50.159Z,5.40
2023-05-19T15:42:51.516Z,5.75
2023-05-19T15:45:52.890Z,4.60
2023-05-19T15:48:54.277Z,4.90
2023-05-19T15:51:55.636Z,5.10
2023-05-19T15:54:56.984Z,4.70
2023-05-19T15:57:58.333Z,4.55
2023-05-19T16:00:59.692Z,5.10
2023-05-19T16:04:01.150Z,5.07
2023-05-19T16:07:02.573Z,4.85
2023-05-19T16:10:03.913Z,4.95
2023-05-19T16:13:05.280Z,5.57
2023-05-19T16:16:06.694Z,4.30
2023-05-19T16:19:08.191Z,4.50
2023-05-19T16:22:09.584Z,5.15
2023-05-19T16:25:10.940Z,5.25
2023-05-19T16:28:12.301Z,5.03
2023-05-19T16:31:13.670Z,5.17
2023-05-19T16:34:15.058Z,4.55
2023-05-19T16:37:16.381Z,4.28
2023-05-19T16:40:17.730Z,4.05
2023-05-19T16:43:19.089Z,4.88
2023-05-19T16:46:20.526Z,4.20
2023-05-19T16:49:21.990Z,4.25
2023-05-19T16:52:23.350Z,4.10
2023-05-19T16:55:24.702Z,4.40
2023-05-19T16:58:26.550Z,4.40
2023-05-19T17:01:28.929Z,4.00
2023-05-19T17:04:30.962Z,4.35
2023-05-19T17:07:32.441Z,4.32
2023-05-19T17:10:34.222Z,4.25
2023-05-19T17:13:35.864Z,3.70
2023-05-19T17:16:37.227Z,3.77
2023-05-19T17:19:38.570Z,3.55
2023-05-19T17:22:39.918Z,3.55
2023-05-19T17:25:41.304Z,4.10
2023-05-19T17:28:42.687Z,3.75
2023-05-19T17:31:44.076Z,3.73
2023-05-19T17:34:45.453Z,4.15
2023-05-19T17:37:46.808Z,4.07
2023-05-19T17:40:48.156Z,4.13
2023-05-19T17:43:49.518Z,4.32
2023-05-19T17:46:50.922Z,3.70
2023-05-19T17:49:52.333Z,4.10
2023-05-19T17:52:53.751Z,4.15
2023-05-19T17:55:55.093Z,3.60
2023-05-19T17:58:56.462Z,3.55
2023-05-19T18:01:57.892Z,3.80
2023-05-19T18:04:59.293Z,3.67
2023-05-19T18:08:00.654Z,3.55
2023-05-19T18:11:01.990Z,4.13
2023-05-19T18:14:03.351Z,4.30
2023-05-19T18:17:04.676Z,3.63
2023-05-19T18:20:06.048Z,3.28
2023-05-19T18:23:07.425Z,4.10
2023-05-19T18:26:08.827Z,3.80
2023-05-19T18:29:10.190Z,3.40
2023-05-19T18:32:11.886Z,3.90
2023-05-19T18:35:13.238Z,3.83
2023-05-19T18:38:14.589Z,4.10
2023-05-19T18:41:15.917Z,3.80
2023-05-19T18:44:17.266Z,3.80
2023-05-19T18:47:18.633Z,3.83
2023-05-19T18:50:19.974Z,3.15
2023-05-19T18:53:21.335Z,3.72
2023-05-19T18:56:22.658Z,4.03
2023-05-19T18:59:24.017Z,3.90
2023-05-19T19:02:25.381Z,3.63
2023-05-19T19:05:26.724Z,3.72
2023-05-19T19:08:28.108Z,3.70
2023-05-19T19:11:29.470Z,3.83
2023-05-19T19:14:30.827Z,3.67
2023-05-19T19:17:32.211Z,4.03
2023-05-19T19:20:33.812Z,4.18
2023-05-19T19:23:35.307Z,4.10
2023-05-19T19:26:36.645Z,4.18
2023-05-19T19:29:37.992Z,4.03
2023-05-19T19:32:39.320Z,4.17
2023-05-19T19:35:40.680Z,4.25
2023-05-19T19:38:42.023Z,4.53
2023-05-19T19:41:43.401Z,4.10
2023-05-19T19:44:44.736Z,4.63
2023-05-19T19:47:46.188Z,4.60
2023-05-19T19:50:47.613Z,4.72
2023-05-19T19:53:48.997Z,5.18
2023-05-19T19:56:50.486Z,4.95
2023-05-19T19:59:51.860Z,4.85
2023-05-19T20:03:03.908Z,5.03
2023-05-19T20:06:06.176Z,4.43
2023-05-19T20:09:07.516Z,5.47
2023-05-19T20:12:08.873Z,5.25
2023-05-19T20:15:10.217Z,5.95
2023-05-19T20:18:11.655Z,5.30
2023-05-19T20:21:13.026Z,5.63
2023-05-19T20:24:14.366Z,6.10
2023-05-19T20:27:15.709Z,5.18
2023-05-19T20:30:17.072Z,5.82
2023-05-19T20:33:18.411Z,5.63
2023-05-19T20:36:19.769Z,5.93
2023-05-19T20:39:21.119Z,5.93
2023-05-19T20:42:22.465Z,5.85
2023-05-19T20:45:23.830Z,6.03
2023-05-19T20:48:25.187Z,5.97
2023-05-19T20:51:26.541Z,5.03
2023-05-19T20:54:27.881Z,5.22
2023-05-19T20:57:29.244Z,5.43
2023-05-19T21:00:30.860Z,5.43
2023-05-19T21:03:32.270Z,5.17
2023-05-19T21:06:33.663Z,5.05
2023-05-19T21:09:35.060Z,6.03
2023-05-19T21:12:36.416Z,5.32
2023-05-19T21:15:37.782Z,5.68
2023-05-19T21:18:39.133Z,4.63
2023-05-19T21:21:40.499Z,5.40
2023-05-19T21:24:41.853Z,5.35
2023-05-19T21:27:43.186Z,5.32
2023-05-19T21:30:44.539Z,5.00
2023-05-19T21:33:45.895Z,4.80
2023-05-19T21:36:48.109Z,5.00
2023-05-19T21:39:50.780Z,4.57
2023-05-19T21:42:52.131Z,4.75
2023-05-19T21:45:53.478Z,4.45
2023-05-19T21:48:54.813Z,4.63
2023-05-19T21:51:56.186Z,5.20
2023-05-19T21:54:57.542Z,4.40
2023-05-19T21:58:00.313Z,4.38
2023-05-19T22:01:03.631Z,4.40
2023-05-19T22:04:05.022Z,4.80
2023-05-19T22:07:06.387Z,4.55
2023-05-19T22:10:07.753Z,5.13
2023-05-19T22:13:09.112Z,4.88
2023-05-19T22:16:10.498Z,4.88
2023-05-19T22:19:11.884Z,3.90
2023-05-19T22:22:14.578Z,4.50
2023-05-19T22:25:16.216Z,5.03
2023-05-19T22:28:17.569Z,4.55
2023-05-19T22:31:18.920Z,4.47
2023-05-19T22:34:20.315Z,4.57
2023-05-19T22:37:21.666Z,4.32
2023-05-19T22:40:23.014Z,5.30
2023-05-19T22:43:24.379Z,4.30
2023-05-19T22:46:25.769Z,5.20
2023-05-19T22:49:27.123Z,4.13
2023-05-19T22:52:28.483Z,4.50
2023-05-19T22:55:29.860Z,4.85
2023-05-19T22:58:31.217Z,4.63
2023-05-19T23:01:32.595Z,4.85
2023-05-19T23:04:34.079Z,4.70
2023-05-19T23:07:35.579Z,4.28
2023-05-19T23:10:36.940Z,4.35
2023-05-19T23:13:38.283Z,4.65
2023-05-19T23:16:39.671Z,4.38
2023-05-19T23:19:41.038Z,4.53
2023-05-19T23:22:42.440Z,3.72
2023-05-19T23:25:43.802Z,4.55
2023-05-19T23:28:45.139Z,3.83
2023-05-19T23:31:46.609Z,4.43
2023-05-19T23:34:48.061Z,4.37
2023-05-19T23:37:49.383Z,4.68
2023-05-19T23:40:50.731Z,4.55
2023-05-19T23:43:52.062Z,3.88
2023-05-19T23:46:53.446Z,3.95
2023-05-19T23:49:54.825Z,4.30
2023-05-19T23:52:56.167Z,4.07
2023-05-19T23:55:58.738Z,4.68
2023-05-19T23:59:00.181Z,4.85
